Time;durP1;ratioP1;P1;durP2;ratioP2;P2;SDS_P1;SDS_P2;PMS_P1;PMS_P2;Temp;Humidity;BMP_temperature;BMP_pressure;BME280_temperature;BME280_humidity;BME280_pressure;Samples;Min_cycle;Max_cycle;Signal;HPM_P1;HPM_P2
2023/05/24 00:02:25;;;;;;;6.23;4.80;;;;;;;;;;5024395;28;20470;-78
2023/05/24 00:05:06;;;;;;;4.73;4.03;;;;;;;;;;5022988;28;20458;-77
2023/05/24 00:07:34;;;;;;;5.03;4.63;;;;;;;;;;5023434;28;20444;-76
2023/05/24 00:10:11;;;;;;;4.43;4.13;;;;;;;;;;5025533;28;20475;-78
2023/05/24 00:12:40;;;;;;;4.77;4.27;;;;;;;;;;5024421;28;20475;-77
2023/05/24 00:15:18;;;;;;;4.60;4.30;;;;;;;;;;5018197;28;20456;-77
2023/05/24 00:18:03;;;;;;;4.93;4.43;;;;;;;;;;5019089;28;20515;-78
2023/05/24 00:23:40;;;;;;;5.17;4.63;;;;;;;;;;5016684;28;20440;-77
2023/05/24 00:26:11;;;;;;;8.90;5.20;;;;;;;;;;5006611;28;20451;-77
2023/05/24 00:28:48;;;;;;;7.30;5.10;;;;;;;;;;5020475;28;20458;-77
2023/05/24 00:31:16;;;;;;;5.70;4.87;;;;;;;;;;5021674;28;20479;-77
2023/05/24 00:33:49;;;;;;;4.87;4.47;;;;;;;;;;5019738;28;20558;-77
2023/05/24 00:36:17;;;;;;;5.17;4.87;;;;;;;;;;5019955;28;20502;-77
2023/05/24 00:38:47;;;;;;;4.57;4.17;;;;;;;;;;5020535;28;20447;-77
2023/05/24 00:41:16;;;;;;;7.57;4.50;;;;;;;;;;5021120;28;20522;-77
2023/05/24 00:43:44;;;;;;;7.33;4.90;;;;;;;;;;5020572;28;20884;-77
2023/05/24 00:46:22;;;;;;;8.27;5.10;;;;;;;;;;5018109;28;20440;-76
2023/05/24 00:48:52;;;;;;;6.33;5.00;;;;;;;;;;5016894;28;20478;-77
2023/05/24 00:51:31;;;;;;;4.67;4.27;;;;;;;;;;5018339;28;20459;-76
2023/05/24 00:53:59;;;;;;;7.27;4.90;;;;;;;;;;5017727;28;20586;-77
2023/05/24 00:56:30;;;;;;;5.47;4.87;;;;;;;;;;5017413;28;20447;-76
2023/05/24 00:58:58;;;;;;;6.50;5.83;;;;;;;;;;5018068;28;20466;-78
2023/05/24 01:01:29;;;;;;;5.23;4.70;;;;;;;;;;5017649;28;20475;-77
2023/05/24 01:03:59;;;;;;;6.00;4.67;;;;;;;;;;5018092;28;20469;-77
2023/05/24 01:06:39;;;;;;;5.73;4.80;;;;;;;;;;5018237;28;20436;-76
2023/05/24 01:09:15;;;;;;;10.07;5.33;;;;;;;;;;5018714;28;20481;-76
2023/05/24 01:11:54;;;;;;;7.00;4.40;;;;;;;;;;5018887;28;20451;-76
2023/05/24 01:14:27;;;;;;;5.63;5.20;;;;;;;;;;5017521;28;20483;-76
2023/05/24 01:17:04;;;;;;;5.80;4.43;;;;;;;;;;5019715;28;20440;-76
2023/05/24 01:19:55;;;;;;;5.07;4.53;;;;;;;;;;5020304;28;20546;-77
2023/05/24 01:25:42;;;;;;;5.67;5.07;;;;;;;;;;5021662;28;20431;-76
2023/05/24 01:28:13;;;;;;;5.50;5.00;;;;;;;;;;5018524;28;20479;-77
2023/05/24 01:30:41;;;;;;;5.90;5.30;;;;;;;;;;5014990;28;20464;-77
2023/05/24 01:33:18;;;;;;;5.17;4.67;;;;;;;;;;5015621;28;20515;-78
2023/05/24 01:35:46;;;;;;;5.90;4.60;;;;;;;;;;5016027;28;20459;-76
2023/05/24 01:38:15;;;;;;;6.37;5.57;;;;;;;;;;5014574;28;20543;-79
2023/05/24 01:41:11;;;;;;;6.73;4.70;;;;;;;;;;5015982;28;20884;-76
2023/05/24 01:43:43;;;;;;;5.67;4.63;;;;;;;;;;5015360;28;20455;-76
2023/05/24 01:46:32;;;;;;;5.83;4.73;;;;;;;;;;5014476;28;20459;-78
2023/05/24 01:49:06;;;;;;;6.13;4.60;;;;;;;;;;5014842;28;20467;-77
2023/05/24 01:51:45;;;;;;;6.53;4.90;;;;;;;;;;5014769;28;20462;-77
2023/05/24 01:54:20;;;;;;;6.60;5.30;;;;;;;;;;5015149;28;20558;-77
2023/05/24 01:56:56;;;;;;;11.53;5.73;;;;;;;;;;5015396;28;20478;-76
2023/05/24 01:59:42;;;;;;;8.20;4.73;;;;;;;;;;5014650;28;20459;-76
2023/05/24 02:02:17;;;;;;;9.10;4.93;;;;;;;;;;5015698;28;20461;-77
2023/05/24 02:04:47;;;;;;;4.97;4.47;;;;;;;;;;5017012;28;20447;-76
2023/05/24 02:07:18;;;;;;;6.97;4.57;;;;;;;;;;5020058;28;20459;-76
2023/05/24 02:09:55;;;;;;;9.73;5.40;;;;;;;;;;5023008;28;20802;-77
2023/05/24 02:12:23;;;;;;;6.40;4.97;;;;;;;;;;5022081;28;20465;-77
2023/05/24 02:14:53;;;;;;;9.33;5.37;;;;;;;;;;5021398;28;20482;-77
2023/05/24 02:17:24;;;;;;;10.30;4.97;;;;;;;;;;5020718;28;20447;-77
2023/05/24 02:19:55;;;;;;;8.17;5.73;;;;;;;;;;5020444;28;20483;-77
2023/05/24 02:22:35;;;;;;;7.27;5.43;;;;;;;;;;5019882;28;20494;-78
2023/05/24 02:25:09;;;;;;;7.53;5.03;;;;;;;;;;5019771;28;20450;-75
2023/05/24 02:27:56;;;;;;;;;;;;;;;;;;;;;
2023/05/24 02:30:33;;;;;;;6.53;5.10;;;;;;;;;;5019031;28;20466;-77
2023/05/24 02:33:02;;;;;;;6.90;5.20;;;;;;;;;;5018977;28;20450;-76
2023/05/24 02:35:33;;;;;;;7.53;5.30;;;;;;;;;;5019832;28;20505;-76
2023/05/24 02:38:05;;;;;;;10.97;5.60;;;;;;;;;;5018501;28;20466;-78
2023/05/24 02:40:36;;;;;;;6.20;5.63;;;;;;;;;;5019030;28;20470;-77
2023/05/24 02:43:06;;;;;;;7.70;5.23;;;;;;;;;;5018592;28;20459;-77
2023/05/24 02:45:39;;;;;;;8.30;6.10;;;;;;;;;;5018739;28;20979;-76
2023/05/24 02:48:13;;;;;;;8.60;6.67;;;;;;;;;;5019862;28;20411;-77
2023/05/24 02:50:47;;;;;;;10.37;6.17;;;;;;;;;;5018612;28;20916;-76
2023/05/24 02:53:22;;;;;;;7.43;5.60;;;;;;;;;;5018254;28;20884;-77
2023/05/24 02:56:04;;;;;;;8.93;4.87;;;;;;;;;;5019797;28;20478;-76
2023/05/24 02:58:33;;;;;;;7.80;5.83;;;;;;;;;;5019043;28;20451;-76
2023/05/24 03:01:03;;;;;;;6.57;5.17;;;;;;;;;;5018374;28;20562;-78
2023/05/24 03:03:30;;;;;;;9.30;5.20;;;;;;;;;;5017613;28;20451;-76
2023/05/24 03:06:08;;;;;;;13.60;6.23;;;;;;;;;;5023093;28;20456;-76
2023/05/24 03:08:39;;;;;;;7.93;5.80;;;;;;;;;;5023378;28;20443;-77
2023/05/24 03:11:07;;;;;;;7.40;5.47;;;;;;;;;;5023198;28;20527;-76
2023/05/24 03:13:43;;;;;;;8.47;5.40;;;;;;;;;;5021861;28;20890;-77
2023/05/24 03:16:24;;;;;;;6.50;5.30;;;;;;;;;;5021539;28;20473;-77
2023/05/24 03:18:58;;;;;;;7.87;5.00;;;;;;;;;;5021763;28;20485;-77
2023/05/24 03:21:27;;;;;;;11.10;6.07;;;;;;;;;;5023163;28;20501;-76
2023/05/24 03:23:58;;;;;;;11.00;5.87;;;;;;;;;;5020333;28;20885;-77
2023/05/24 03:26:26;;;;;;;7.07;5.80;;;;;;;;;;5019143;28;20455;-77
2023/05/24 03:28:55;;;;;;;8.43;6.10;;;;;;;;;;5020673;28;20453;-77
2023/05/24 03:31:25;;;;;;;8.83;5.97;;;;;;;;;;5020791;28;20482;-76
2023/05/24 03:33:54;;;;;;;8.90;5.80;;;;;;;;;;5020430;28;20495;-76
2023/05/24 03:36:25;;;;;;;7.40;5.23;;;;;;;;;;5021647;28;20455;-76
2023/05/24 03:38:53;;;;;;;7.70;5.80;;;;;;;;;;5019533;28;20463;-77
2023/05/24 03:41:25;;;;;;;6.30;5.23;;;;;;;;;;5019035;28;20491;-77
2023/05/24 03:43:53;;;;;;;7.10;5.60;;;;;;;;;;5020166;28;20486;-77
2023/05/24 03:46:23;;;;;;;6.97;6.27;;;;;;;;;;5023393;28;20530;-77
2023/05/24 03:48:52;;;;;;;8.17;5.67;;;;;;;;;;5025312;28;20432;-77
2023/05/24 03:51:22;;;;;;;6.73;5.73;;;;;;;;;;5025442;28;20535;-77
2023/05/24 03:54:06;;;;;;;7.80;6.20;;;;;;;;;;5025072;28;20479;-77
2023/05/24 03:59:49;;;;;;;11.97;6.30;;;;;;;;;;4955508;28;20463;-77
2023/05/24 04:02:17;;;;;;;9.03;5.83;;;;;;;;;;5028043;28;20439;-76
2023/05/24 04:04:46;;;;;;;6.50;5.87;;;;;;;;;;5025386;28;20539;-76
2023/05/24 04:07:19;;;;;;;7.33;5.93;;;;;;;;;;5024790;28;20459;-77
2023/05/24 04:09:47;;;;;;;8.90;7.90;;;;;;;;;;5022774;28;20487;-77
2023/05/24 04:12:15;;;;;;;7.40;6.33;;;;;;;;;;5020111;28;20446;-77
2023/05/24 04:14:44;;;;;;;7.13;5.87;;;;;;;;;;5019890;28;20479;-77
2023/05/24 04:17:12;;;;;;;8.90;5.77;;;;;;;;;;5019996;28;20466;-77
2023/05/24 04:19:40;;;;;;;12.23;6.43;;;;;;;;;;5022203;28;20503;-78
2023/05/24 04:22:09;;;;;;;10.70;6.10;;;;;;;;;;5023095;28;20477;-77
2023/05/24 04:24:40;;;;;;;7.43;5.47;;;;;;;;;;5022894;28;20456;-79
2023/05/24 04:27:12;;;;;;;8.77;5.70;;;;;;;;;;5025159;28;20438;-77
2023/05/24 04:29:40;;;;;;;6.77;5.30;;;;;;;;;;5020978;28;20467;-78
2023/05/24 04:32:09;;;;;;;10.13;6.20;;;;;;;;;;5024632;28;20447;-76
2023/05/24 04:34:41;;;;;;;9.43;5.90;;;;;;;;;;5023309;28;20475;-77
2023/05/24 04:37:19;;;;;;;8.60;5.40;;;;;;;;;;5023496;28;20443;-77
2023/05/24 04:39:53;;;;;;;8.03;5.70;;;;;;;;;;5023015;28;20459;-78
2023/05/24 04:42:22;;;;;;;11.03;6.57;;;;;;;;;;5022619;28;20444;-76
2023/05/24 04:44:51;;;;;;;10.23;6.33;;;;;;;;;;5021279;28;20457;-78
2023/05/24 04:47:20;;;;;;;6.53;5.70;;;;;;;;;;5020720;28;20483;-79
2023/05/24 04:49:48;;;;;;;9.67;6.10;;;;;;;;;;5019250;28;20710;-78
2023/05/24 04:52:17;;;;;;;11.53;6.13;;;;;;;;;;5019072;28;20466;-77
2023/05/24 04:54:46;;;;;;;8.07;5.33;;;;;;;;;;5018013;28;20567;-77
2023/05/24 04:57:13;;;;;;;9.83;6.70;;;;;;;;;;5019025;28;20436;-77
2023/05/24 04:59:41;;;;;;;8.37;6.43;;;;;;;;;;5020452;28;20463;-78
2023/05/24 05:02:09;;;;;;;6.83;6.13;;;;;;;;;;5019607;28;20443;-79
2023/05/24 05:04:37;;;;;;;8.00;6.23;;;;;;;;;;5021092;28;20455;-79
2023/05/24 05:07:05;;;;;;;11.20;6.57;;;;;;;;;;5020615;28;20475;-76
2023/05/24 05:09:34;;;;;;;7.73;6.20;;;;;;;;;;5021161;28;20859;-78
2023/05/24 05:12:03;;;;;;;10.93;6.10;;;;;;;;;;5022016;28;20447;-76
2023/05/24 05:14:31;;;;;;;10.07;6.40;;;;;;;;;;5022926;28;20834;-75
2023/05/24 05:17:02;;;;;;;11.00;6.77;;;;;;;;;;5022775;28;20479;-79
2023/05/24 05:19:30;;;;;;;9.93;6.17;;;;;;;;;;5022663;28;20470;-77
2023/05/24 05:21:57;;;;;;;11.00;6.40;;;;;;;;;;5022771;28;20479;-79
2023/05/24 05:24:25;;;;;;;12.10;6.23;;;;;;;;;;5022471;28;20436;-77
2023/05/24 05:26:55;;;;;;;6.73;6.10;;;;;;;;;;5023628;28;20467;-78
2023/05/24 05:29:24;;;;;;;8.87;7.20;;;;;;;;;;5023806;28;20471;-78
2023/05/24 05:31:52;;;;;;;9.60;6.10;;;;;;;;;;5023850;28;20542;-77
2023/05/24 05:34:20;;;;;;;8.60;5.73;;;;;;;;;;5023942;28;20510;-78
2023/05/24 05:36:48;;;;;;;9.03;6.43;;;;;;;;;;5025684;28;20455;-77
2023/05/24 05:39:17;;;;;;;12.33;6.27;;;;;;;;;;5026612;28;20547;-78
2023/05/24 05:41:46;;;;;;;11.17;6.87;;;;;;;;;;5025659;28;20464;-81
2023/05/24 05:44:16;;;;;;;8.50;6.30;;;;;;;;;;5027449;28;20452;-77
2023/05/24 05:46:44;;;;;;;8.90;6.20;;;;;;;;;;5025463;28;20443;-78
2023/05/24 05:49:12;;;;;;;13.60;6.60;;;;;;;;;;5017198;28;20521;-78
2023/05/24 05:51:40;;;;;;;10.23;5.70;;;;;;;;;;5016171;28;20549;-79
2023/05/24 05:54:13;;;;;;;10.37;6.40;;;;;;;;;;5016085;28;20455;-77
2023/05/24 05:56:44;;;;;;;11.90;6.27;;;;;;;;;;5015514;28;20467;-77
2023/05/24 05:59:12;;;;;;;10.83;5.93;;;;;;;;;;5018435;28;20432;-78
2023/05/24 06:01:41;;;;;;;7.10;5.20;;;;;;;;;;5018544;28;20470;-77
2023/05/24 06:04:09;;;;;;;10.17;6.23;;;;;;;;;;5013066;28;20482;-77
2023/05/24 06:06:37;;;;;;;8.13;5.90;;;;;;;;;;5013745;28;20483;-76
2023/05/24 06:09:05;;;;;;;9.27;6.43;;;;;;;;;;5014079;28;20517;-76
2023/05/24 06:11:32;;;;;;;8.30;5.90;;;;;;;;;;5013666;28;21000;-78
2023/05/24 06:14:01;;;;;;;8.63;5.27;;;;;;;;;;5013637;28;20447;-77
2023/05/24 06:16:29;;;;;;;7.70;4.93;;;;;;;;;;5013627;28;20479;-78
2023/05/24 06:18:59;;;;;;;8.23;6.00;;;;;;;;;;5013486;28;20427;-78
2023/05/24 06:21:28;;;;;;;6.57;5.37;;;;;;;;;;5011873;28;20455;-79
2023/05/24 06:23:57;;;;;;;8.23;5.67;;;;;;;;;;5010403;28;20483;-79
2023/05/24 06:26:25;;;;;;;7.07;5.73;;;;;;;;;;5010692;28;20463;-77
2023/05/24 06:28:53;;;;;;;9.87;5.77;;;;;;;;;;5010658;28;20455;-78
2023/05/24 06:31:21;;;;;;;6.47;5.40;;;;;;;;;;5010225;28;20569;-76
2023/05/24 06:33:49;;;;;;;10.80;5.83;;;;;;;;;;5009846;28;20466;-77
2023/05/24 06:36:18;;;;;;;10.83;5.77;;;;;;;;;;5010997;28;20832;-78
2023/05/24 06:38:45;;;;;;;8.60;5.80;;;;;;;;;;5011740;28;20458;-77
2023/05/24 06:41:13;;;;;;;8.40;6.47;;;;;;;;;;5011680;28;20546;-78
2023/05/24 06:43:41;;;;;;;7.80;6.20;;;;;;;;;;5013409;28;20486;-79
2023/05/24 06:46:09;;;;;;;12.63;6.80;;;;;;;;;;5014179;28;20513;-76
2023/05/24 06:48:36;;;;;;;6.40;5.57;;;;;;;;;;5013475;28;20448;-79
2023/05/24 06:51:05;;;;;;;21.03;6.43;;;;;;;;;;5011514;28;20451;-77
2023/05/24 06:53:34;;;;;;;9.17;6.63;;;;;;;;;;5011901;28;20547;-77
2023/05/24 06:56:02;;;;;;;10.43;6.57;;;;;;;;;;5012836;28;20608;-76
2023/05/24 06:58:30;;;;;;;11.37;6.17;;;;;;;;;;5013040;28;20510;-79
2023/05/24 07:01:01;;;;;;;8.40;6.00;;;;;;;;;;5012730;28;20470;-78
2023/05/24 07:03:29;;;;;;;14.03;6.20;;;;;;;;;;5013074;28;20479;-76
2023/05/24 07:05:56;;;;;;;6.40;5.80;;;;;;;;;;5013433;28;20443;-78
2023/05/24 07:08:24;;;;;;;10.77;6.07;;;;;;;;;;5013158;28;20458;-78
2023/05/24 07:10:53;;;;;;;7.73;5.83;;;;;;;;;;5012791;28;20494;-80
2023/05/24 07:13:21;;;;;;;15.20;6.20;;;;;;;;;;5012822;28;20455;-77
2023/05/24 07:15:50;;;;;;;9.70;5.50;;;;;;;;;;5012566;28;20505;-76
2023/05/24 07:18:17;;;;;;;8.23;5.67;;;;;;;;;;5012489;28;20466;-78
2023/05/24 07:20:45;;;;;;;8.93;6.33;;;;;;;;;;5012612;28;20490;-77
2023/05/24 07:23:13;;;;;;;7.87;6.00;;;;;;;;;;5013176;28;20451;-79
2023/05/24 07:25:41;;;;;;;12.40;6.97;;;;;;;;;;5013353;28;20551;-78
2023/05/24 07:28:10;;;;;;;10.57;6.90;;;;;;;;;;5013532;28;20965;-77
2023/05/24 07:30:38;;;;;;;12.43;6.60;;;;;;;;;;5013681;28;20529;-78
2023/05/24 07:33:07;;;;;;;11.53;6.23;;;;;;;;;;5014620;28;20479;-78
2023/05/24 07:35:35;;;;;;;7.40;5.33;;;;;;;;;;5016207;28;20533;-78
2023/05/24 07:38:03;;;;;;;9.73;6.77;;;;;;;;;;5015789;28;20530;-77
2023/05/24 07:40:31;;;;;;;10.60;5.77;;;;;;;;;;5018516;28;20563;-78
2023/05/24 07:43:02;;;;;;;17.50;7.40;;;;;;;;;;5017554;28;20510;-79
2023/05/24 07:45:32;;;;;;;24.07;6.63;;;;;;;;;;5017082;28;20439;-79
2023/05/24 07:48:00;;;;;;;10.90;5.97;;;;;;;;;;5017559;28;20451;-80
2023/05/24 07:50:28;;;;;;;10.60;6.43;;;;;;;;;;5018037;28;20543;-78
2023/05/24 07:52:58;;;;;;;10.80;7.00;;;;;;;;;;5017161;28;20455;-77
2023/05/24 07:55:26;;;;;;;12.73;7.50;;;;;;;;;;5016591;28;20483;-78
2023/05/24 07:57:55;;;;;;;10.03;6.30;;;;;;;;;;5017254;28;20463;-78
2023/05/24 08:00:24;;;;;;;8.83;7.10;;;;;;;;;;5013864;28;20485;-78
2023/05/24 08:02:56;;;;;;;14.77;6.80;;;;;;;;;;5015013;28;20470;-77
2023/05/24 08:05:24;;;;;;;11.50;6.30;;;;;;;;;;5011361;28;20473;-77
2023/05/24 08:07:52;;;;;;;11.80;7.70;;;;;;;;;;5015465;28;20455;-78
2023/05/24 08:10:20;;;;;;;7.87;6.60;;;;;;;;;;5016635;28;20484;-77
2023/05/24 08:12:50;;;;;;;10.50;6.37;;;;;;;;;;5016430;28;20546;-79
2023/05/24 08:15:20;;;;;;;11.57;6.67;;;;;;;;;;5016447;28;20539;-78
2023/05/24 08:17:49;;;;;;;10.53;6.00;;;;;;;;;;5019206;28;20432;-76
2023/05/24 08:20:22;;;;;;;9.50;5.80;;;;;;;;;;5017209;28;20475;-79
2023/05/24 08:22:49;;;;;;;13.57;6.27;;;;;;;;;;5016788;28;20550;-78
2023/05/24 08:25:17;;;;;;;12.20;6.40;;;;;;;;;;5015826;28;20451;-76
2023/05/24 08:27:45;;;;;;;8.93;6.17;;;;;;;;;;5014148;28;20478;-78
2023/05/24 08:30:14;;;;;;;12.20;6.17;;;;;;;;;;5013384;28;20537;-78
2023/05/24 08:32:42;;;;;;;8.50;6.07;;;;;;;;;;5011773;28;20478;-80
2023/05/24 08:35:10;;;;;;;7.47;6.57;;;;;;;;;;5012212;28;20525;-77
2023/05/24 08:37:40;;;;;;;11.00;6.30;;;;;;;;;;5011909;28;20444;-79
2023/05/24 08:40:09;;;;;;;12.13;6.43;;;;;;;;;;5011115;28;20483;-78
2023/05/24 08:42:39;;;;;;;13.07;5.73;;;;;;;;;;5011415;28;20517;-77
2023/05/24 08:45:10;;;;;;;16.80;7.30;;;;;;;;;;5012240;28;20486;-77
2023/05/24 08:47:38;;;;;;;9.43;6.60;;;;;;;;;;5011488;28;20459;-77
2023/05/24 08:50:07;;;;;;;10.70;6.50;;;;;;;;;;5011188;28;20487;-77
2023/05/24 08:52:35;;;;;;;10.60;6.93;;;;;;;;;;5010896;28;20477;-78
2023/05/24 08:55:05;;;;;;;10.57;7.43;;;;;;;;;;5011559;28;20967;-77
2023/05/24 08:57:34;;;;;;;11.23;6.37;;;;;;;;;;5011604;28;20794;-78
2023/05/24 09:00:02;;;;;;;7.30;5.83;;;;;;;;;;5010737;28;20907;-77
2023/05/24 09:02:33;;;;;;;9.87;6.93;;;;;;;;;;5011199;28;20444;-78
2023/05/24 09:05:05;;;;;;;8.83;5.90;;;;;;;;;;5010977;28;20481;-77
2023/05/24 09:07:33;;;;;;;9.77;6.70;;;;;;;;;;5010839;28;20495;-77
2023/05/24 09:10:05;;;;;;;8.70;5.90;;;;;;;;;;5010486;28;20451;-76
2023/05/24 09:12:35;;;;;;;9.10;6.60;;;;;;;;;;5011523;28;20470;-76
2023/05/24 09:15:03;;;;;;;10.27;7.00;;;;;;;;;;5010550;28;20467;-76
2023/05/24 09:17:31;;;;;;;10.10;6.47;;;;;;;;;;5011732;28;20451;-78
2023/05/24 09:19:59;;;;;;;9.70;6.60;;;;;;;;;;5011367;28;20482;-77
2023/05/24 09:22:29;;;;;;;9.90;6.37;;;;;;;;;;5011314;28;20481;-78
2023/05/24 09:24:58;;;;;;;12.27;7.27;;;;;;;;;;5010656;28;20482;-77
2023/05/24 09:27:26;;;;;;;7.90;6.53;;;;;;;;;;5011316;28;20447;-77
2023/05/24 09:29:56;;;;;;;8.50;7.30;;;;;;;;;;5010657;28;20981;-77
2023/05/24 09:32:24;;;;;;;14.57;7.70;;;;;;;;;;5011487;28;21032;-77
2023/05/24 09:34:53;;;;;;;11.73;6.93;;;;;;;;;;5011332;28;20451;-78
2023/05/24 09:37:22;;;;;;;11.07;6.67;;;;;;;;;;5010532;28;20472;-79
2023/05/24 09:39:50;;;;;;;9.97;6.63;;;;;;;;;;5014682;28;20518;-78
2023/05/24 09:42:21;;;;;;;9.50;5.53;;;;;;;;;;5020040;28;20505;-80
2023/05/24 09:44:51;;;;;;;10.60;6.57;;;;;;;;;;5023103;28;20436;-79
2023/05/24 09:47:21;;;;;;;9.67;6.63;;;;;;;;;;5024037;28;20443;-80
2023/05/24 09:49:53;;;;;;;10.20;7.00;;;;;;;;;;5021783;28;20565;-79
2023/05/24 09:52:24;;;;;;;11.53;6.97;;;;;;;;;;5020799;28;20538;-78
2023/05/24 09:54:53;;;;;;;8.40;6.20;;;;;;;;;;5020989;28;20527;-77
2023/05/24 09:57:22;;;;;;;10.30;6.50;;;;;;;;;;5018842;28;20483;-79
2023/05/24 09:59:51;;;;;;;11.70;6.83;;;;;;;;;;5010792;28;20526;-78
2023/05/24 10:02:22;;;;;;;7.47;6.00;;;;;;;;;;5012731;28;20455;-79
2023/05/24 10:04:58;;;;;;;9.50;6.53;;;;;;;;;;5013808;28;20505;-78
2023/05/24 10:07:27;;;;;;;11.60;7.33;;;;;;;;;;5014876;28;20490;-77
2023/05/24 10:09:55;;;;;;;13.40;7.40;;;;;;;;;;5016302;28;20554;-78
2023/05/24 10:12:29;;;;;;;13.00;7.00;;;;;;;;;;5016614;28;20455;-79
2023/05/24 10:14:59;;;;;;;13.00;7.17;;;;;;;;;;5015279;28;20451;-79
2023/05/24 10:17:28;;;;;;;11.50;6.67;;;;;;;;;;5012743;28;20566;-80
2023/05/24 10:19:57;;;;;;;15.77;7.10;;;;;;;;;;5012413;28;20459;-79
2023/05/24 10:22:25;;;;;;;9.60;6.40;;;;;;;;;;5011098;28;20505;-80
2023/05/24 10:24:58;;;;;;;9.63;6.90;;;;;;;;;;5010361;28;20447;-78
2023/05/24 10:27:30;;;;;;;10.27;6.13;;;;;;;;;;5011674;28;20454;-80
2023/05/24 10:30:02;;;;;;;7.73;6.47;;;;;;;;;;5014873;28;20524;-77
2023/05/24 10:32:33;;;;;;;10.67;6.40;;;;;;;;;;5015351;28;20820;-79
2023/05/24 10:35:02;;;;;;;10.90;6.60;;;;;;;;;;5015025;28;20455;-77
2023/05/24 10:37:31;;;;;;;9.20;6.40;;;;;;;;;;5014341;28;20487;-80
2023/05/24 10:40:00;;;;;;;10.40;7.00;;;;;;;;;;5013743;28;20672;-77
2023/05/24 10:42:28;;;;;;;11.03;7.10;;;;;;;;;;5013390;28;20447;-79
2023/05/24 10:44:57;;;;;;;17.40;7.13;;;;;;;;;;5013434;28;20455;-79
2023/05/24 10:47:32;;;;;;;10.87;7.20;;;;;;;;;;5013630;28;20880;-76
2023/05/24 10:50:24;;;;;;;13.40;7.77;;;;;;;;;;5013355;28;20486;-78
2023/05/24 10:52:55;;;;;;;10.20;7.27;;;;;;;;;;5013765;28;20466;-79
2023/05/24 10:55:36;;;;;;;12.07;7.53;;;;;;;;;;5013712;28;20470;-79
2023/05/24 10:58:10;;;;;;;9.10;6.37;;;;;;;;;;5014014;28;20982;-79
2023/05/24 11:00:46;;;;;;;11.73;7.50;;;;;;;;;;5015078;28;20474;-79
2023/05/24 11:03:22;;;;;;;9.37;6.67;;;;;;;;;;5014075;28;20450;-78
2023/05/24 11:05:53;;;;;;;14.30;6.60;;;;;;;;;;5014143;28;20482;-78
2023/05/24 11:08:27;;;;;;;21.40;7.60;;;;;;;;;;5013520;28;20455;-79
2023/05/24 11:11:05;;;;;;;11.27;7.00;;;;;;;;;;5013466;28;20470;-78
2023/05/24 11:13:33;;;;;;;10.57;5.60;;;;;;;;;;5014133;28;20454;-80
2023/05/24 11:16:06;;;;;;;10.07;6.40;;;;;;;;;;5014728;28;20826;-80
2023/05/24 11:18:37;;;;;;;10.00;6.70;;;;;;;;;;5014584;28;20460;-78
2023/05/24 11:21:06;;;;;;;11.43;7.50;;;;;;;;;;4994756;28;20476;-80
2023/05/24 11:23:40;;;;;;;18.10;7.63;;;;;;;;;;4997139;28;20506;-80
2023/05/24 11:26:08;;;;;;;12.90;6.50;;;;;;;;;;4998815;28;20452;-77
2023/05/24 11:28:37;;;;;;;10.23;6.87;;;;;;;;;;4998552;28;20463;-78
2023/05/24 11:31:09;;;;;;;8.43;6.30;;;;;;;;;;4999380;28;20999;-81
2023/05/24 11:33:45;;;;;;;8.70;6.10;;;;;;;;;;5012125;28;20454;-77
2023/05/24 11:36:41;;;;;;;12.03;5.93;;;;;;;;;;5019505;28;21097;-77
2023/05/24 11:39:11;;;;;;;13.87;7.23;;;;;;;;;;5018641;28;20454;-78
2023/05/24 11:41:41;;;;;;;10.43;6.40;;;;;;;;;;5020157;28;20454;-78
2023/05/24 11:44:09;;;;;;;9.40;6.93;;;;;;;;;;5018878;28;20842;-78
2023/05/24 11:46:43;;;;;;;13.40;5.80;;;;;;;;;;5017611;28;20489;-78
2023/05/24 11:49:14;;;;;;;11.27;6.40;;;;;;;;;;5017467;28;21182;-79
2023/05/24 11:51:42;;;;;;;10.40;6.00;;;;;;;;;;5015735;28;20534;-77
2023/05/24 11:54:11;;;;;;;6.93;5.33;;;;;;;;;;5017984;28;20455;-78
2023/05/24 11:56:39;;;;;;;14.13;5.87;;;;;;;;;;5017002;28;20475;-77
2023/05/24 11:59:13;;;;;;;10.43;5.37;;;;;;;;;;5017292;28;20455;-78
2023/05/24 12:01:43;;;;;;;9.10;5.93;;;;;;;;;;5016966;28;20455;-77
2023/05/24 12:04:11;;;;;;;8.50;4.97;;;;;;;;;;5015182;28;20475;-77
2023/05/24 12:06:43;;;;;;;5.17;4.70;;;;;;;;;;5016625;28;20514;-78
2023/05/24 12:09:13;;;;;;;9.60;5.10;;;;;;;;;;5016258;28;20829;-76
2023/05/24 12:11:42;;;;;;;7.10;5.33;;;;;;;;;;5017600;28;20452;-77
2023/05/24 12:14:13;;;;;;;6.40;4.70;;;;;;;;;;5019042;28;20478;-77
2023/05/24 12:16:42;;;;;;;12.30;6.07;;;;;;;;;;5017514;28;20471;-77
2023/05/24 12:19:14;;;;;;;7.00;5.20;;;;;;;;;;5015654;28;20530;-78
2023/05/24 12:21:42;;;;;;;8.50;5.40;;;;;;;;;;5015142;28;20466;-76
2023/05/24 12:24:10;;;;;;;7.40;4.40;;;;;;;;;;5014235;28;20550;-77
2023/05/24 12:26:41;;;;;;;6.10;4.60;;;;;;;;;;5014163;28;20448;-77
2023/05/24 12:29:11;;;;;;;11.87;6.00;;;;;;;;;;5016673;28;20550;-78
2023/05/24 12:31:40;;;;;;;6.47;5.10;;;;;;;;;;5014883;28;20482;-76
2023/05/24 12:34:14;;;;;;;8.80;5.10;;;;;;;;;;5017068;28;20872;-78
2023/05/24 12:36:43;;;;;;;8.97;7.90;;;;;;;;;;5017694;28;20480;-77
2023/05/24 12:39:21;;;;;;;6.70;4.87;;;;;;;;;;5016585;28;20462;-76
2023/05/24 12:41:53;;;;;;;6.87;4.90;;;;;;;;;;5018758;28;20576;-77
2023/05/24 12:44:27;;;;;;;6.43;5.10;;;;;;;;;;5016652;28;20452;-77
2023/05/24 12:46:55;;;;;;;10.43;4.97;;;;;;;;;;5015604;28;20502;-78
2023/05/24 12:49:23;;;;;;;9.67;5.37;;;;;;;;;;5013180;28;20459;-78
2023/05/24 12:51:51;;;;;;;10.93;5.40;;;;;;;;;;5013398;28;20521;-78
2023/05/24 12:54:21;;;;;;;7.53;5.00;;;;;;;;;;5012200;28;20462;-77
2023/05/24 12:56:49;;;;;;;9.03;5.37;;;;;;;;;;5015791;28;20467;-77
2023/05/24 12:59:18;;;;;;;7.87;4.60;;;;;;;;;;5017239;28;20458;-79
2023/05/24 13:01:50;;;;;;;9.47;5.83;;;;;;;;;;5017088;28;20452;-76
2023/05/24 13:04:18;;;;;;;7.30;5.00;;;;;;;;;;5017678;28;20428;-77
2023/05/24 13:06:54;;;;;;;7.33;4.80;;;;;;;;;;5015688;28;20851;-75
2023/05/24 13:09:22;;;;;;;7.00;4.40;;;;;;;;;;5015931;28;20471;-76
2023/05/24 13:11:54;;;;;;;5.90;4.40;;;;;;;;;;5015998;28;20486;-75
2023/05/24 13:14:23;;;;;;;6.97;4.77;;;;;;;;;;5015801;28;20518;-77
2023/05/24 13:16:51;;;;;;;8.40;4.70;;;;;;;;;;5016139;28;20475;-76
2023/05/24 13:19:19;;;;;;;7.50;4.37;;;;;;;;;;5015158;28;20485;-77
2023/05/24 13:21:47;;;;;;;6.53;4.07;;;;;;;;;;5015484;28;20474;-77
2023/05/24 13:24:16;;;;;;;6.97;5.00;;;;;;;;;;5015926;28;20523;-75
2023/05/24 13:26:43;;;;;;;6.43;4.57;;;;;;;;;;5016308;28;20455;-76
2023/05/24 13:29:17;;;;;;;7.53;4.90;;;;;;;;;;5019501;28;20930;-76
2023/05/24 13:32:24;;;;;;;8.27;4.20;;;;;;;;;;5022119;28;20478;-75
2023/05/24 13:34:57;;;;;;;7.73;4.67;;;;;;;;;;4942956;29;20454;-79
2023/05/24 13:37:26;;;;;;;7.33;4.30;;;;;;;;;;4943453;29;20533;-76
2023/05/24 13:40:13;;;;;;;10.37;7.60;;;;;;;;;;5005749;28;20502;-77
2023/05/24 13:42:44;;;;;;;9.33;5.70;;;;;;;;;;5022282;28;20475;-79
2023/05/24 13:45:15;;;;;;;5.97;4.13;;;;;;;;;;5021787;28;20528;-78
2023/05/24 13:48:04;;;;;;;;;;;;;;;;;;;;;
2023/05/24 13:50:43;;;;;;;9.67;4.67;;;;;;;;;;5027709;28;20467;-77
2023/05/24 13:53:22;;;;;;;8.93;3.67;;;;;;;;;;5028602;28;20436;-77
2023/05/24 13:55:50;;;;;;;7.30;5.00;;;;;;;;;;5028654;28;20450;-76
2023/05/24 14:01:02;;;;;;;7.57;4.00;;;;;;;;;;5022882;28;20459;-79
2023/05/24 14:03:33;;;;;;;7.23;4.53;;;;;;;;;;5028525;28;20439;-80
2023/05/24 14:06:02;;;;;;;5.97;4.50;;;;;;;;;;5023537;28;20436;-77
2023/05/24 14:08:35;;;;;;;5.50;4.33;;;;;;;;;;5023877;28;20454;-79
2023/05/24 14:11:03;;;;;;;6.00;3.50;;;;;;;;;;5026578;28;20531;-77
2023/05/24 14:13:30;;;;;;;5.53;3.00;;;;;;;;;;5026559;28;20804;-79
2023/05/24 14:16:08;;;;;;;4.40;3.00;;;;;;;;;;5023926;28;20541;-77
2023/05/24 14:18:35;;;;;;;7.17;3.73;;;;;;;;;;5025690;28;20474;-77
2023/05/24 14:21:04;;;;;;;5.43;3.13;;;;;;;;;;5005441;28;20467;-77
2023/05/24 14:23:32;;;;;;;6.37;4.03;;;;;;;;;;5003592;28;20455;-78
2023/05/24 14:26:03;;;;;;;5.93;3.97;;;;;;;;;;5007402;28;20949;-78
2023/05/24 14:28:30;;;;;;;7.47;4.00;;;;;;;;;;5006360;28;20452;-76
2023/05/24 14:31:01;;;;;;;4.90;3.30;;;;;;;;;;5005147;28;20480;-78
2023/05/24 14:33:28;;;;;;;8.57;3.80;;;;;;;;;;5005942;28;20544;-76
2023/05/24 14:35:56;;;;;;;6.23;3.53;;;;;;;;;;5003909;28;20705;-77
2023/05/24 14:38:25;;;;;;;6.30;3.40;;;;;;;;;;5008807;28;20484;-77
2023/05/24 14:40:55;;;;;;;3.33;2.97;;;;;;;;;;5016671;28;20482;-78
2023/05/24 14:43:27;;;;;;;5.57;3.57;;;;;;;;;;5018161;28;20455;-78
2023/05/24 14:45:55;;;;;;;4.87;4.00;;;;;;;;;;5018951;28;20844;-80
2023/05/24 14:48:22;;;;;;;5.90;3.27;;;;;;;;;;5018110;28;20460;-76
2023/05/24 14:50:50;;;;;;;3.30;3.00;;;;;;;;;;5019920;28;20490;-76
2023/05/24 14:53:20;;;;;;;6.80;3.70;;;;;;;;;;5023510;28;20482;-77
2023/05/24 14:55:49;;;;;;;4.73;3.67;;;;;;;;;;5021089;28;20984;-77
2023/05/24 14:58:17;;;;;;;5.60;3.63;;;;;;;;;;5018396;28;20471;-78
2023/05/24 15:00:44;;;;;;;5.33;3.53;;;;;;;;;;5018176;28;20471;-76
2023/05/24 15:03:13;;;;;;;3.17;2.80;;;;;;;;;;5017682;28;20501;-76
2023/05/24 15:05:41;;;;;;;4.80;3.33;;;;;;;;;;5017930;28;20457;-79
2023/05/24 15:08:09;;;;;;;3.73;3.20;;;;;;;;;;5018342;28;20450;-78
2023/05/24 15:10:38;;;;;;;6.60;3.53;;;;;;;;;;5018825;28;20490;-78
2023/05/24 15:13:07;;;;;;;3.80;3.23;;;;;;;;;;5017916;28;20506;-79
2023/05/24 15:15:35;;;;;;;7.50;3.60;;;;;;;;;;5020481;28;20463;-78